sensor_id;sensor_type;location;lat;lon;timestamp;P1;durP1;ratioP1;P2;durP2;ratioP2
17790;SDS011;9019;48.132;-1.210;2023-09-12T00:02:01;11.25;;;7.57;;
17790;SDS011;9019;48.132;-1.210;2023-09-12T00:04:30;9.30;;;7.50;;
17790;SDS011;9019;48.132;-1.210;2023-09-12T00:06:57;8.98;;;7.93;;
17790;SDS011;9019;48.132;-1.210;2023-09-12T00:09:24;9.35;;;8.07;;
17790;SDS011;9019;48.132;-1.210;2023-09-12T00:11:52;9.88;;;8.15;;
17790;SDS011;9019;48.132;-1.210;2023-09-12T00:14:20;9.23;;;7.68;;
17790;SDS011;9019;48.132;-1.210;2023-09-12T00:16:47;11.55;;;8.00;;
17790;SDS011;9019;48.132;-1.210;2023-09-12T00:19:16;10.57;;;7.80;;
17790;SDS011;9019;48.132;-1.210;2023-09-12T00:21:45;9.90;;;7.68;;
17790;SDS011;9019;48.132;-1.210;2023-09-12T00:24:12;9.93;;;7.30;;
17790;SDS011;9019;48.132;-1.210;2023-09-12T00:26:39;12.40;;;7.72;;
17790;SDS011;9019;48.132;-1.210;2023-09-12T00:29:06;10.13;;;7.30;;
17790;SDS011;9019;48.132;-1.210;2023-09-12T00:31:34;10.00;;;7.10;;
17790;SDS011;9019;48.132;-1.210;2023-09-12T00:34:01;11.23;;;7.35;;
17790;SDS011;9019;48.132;-1.210;2023-09-12T00:36:28;7.70;;;6.55;;
17790;SDS011;9019;48.132;-1.210;2023-09-12T00:38:57;8.60;;;6.68;;
17790;SDS011;9019;48.132;-1.210;2023-09-12T00:41:24;9.25;;;7.05;;
17790;SDS011;9019;48.132;-1.210;2023-09-12T00:43:52;10.25;;;7.15;;
17790;SDS011;9019;48.132;-1.210;2023-09-12T00:46:19;10.77;;;6.68;;
17790;SDS011;9019;48.132;-1.210;2023-09-12T00:48:48;10.20;;;7.05;;
17790;SDS011;9019;48.132;-1.210;2023-09-12T00:51:17;8.27;;;6.78;;
17790;SDS011;9019;48.132;-1.210;2023-09-12T00:53:45;8.85;;;6.70;;
17790;SDS011;9019;48.132;-1.210;2023-09-12T00:56:14;8.55;;;6.75;;
17790;SDS011;9019;48.132;-1.210;2023-09-12T00:58:41;9.30;;;6.97;;
17790;SDS011;9019;48.132;-1.210;2023-09-12T01:01:10;11.25;;;7.00;;
17790;SDS011;9019;48.132;-1.210;2023-09-12T01:03:37;9.82;;;7.40;;
17790;SDS011;9019;48.132;-1.210;2023-09-12T01:06:05;9.20;;;7.40;;
17790;SDS011;9019;48.132;-1.210;2023-09-12T01:08:34;10.02;;;6.75;;
17790;SDS011;9019;48.132;-1.210;2023-09-12T01:11:02;9.77;;;7.20;;
17790;SDS011;9019;48.132;-1.210;2023-09-12T01:13:31;11.30;;;7.43;;
17790;SDS011;9019;48.132;-1.210;2023-09-12T01:15:58;10.60;;;6.95;;
17790;SDS011;9019;48.132;-1.210;2023-09-12T01:18:25;9.00;;;7.43;;
17790;SDS011;9019;48.132;-1.210;2023-09-12T01:20:59;10.20;;;7.65;;
17790;SDS011;9019;48.132;-1.210;2023-09-12T01:23:35;11.15;;;7.18;;
17790;SDS011;9019;48.132;-1.210;2023-09-12T01:26:26;9.18;;;7.82;;
17790;SDS011;9019;48.132;-1.210;2023-09-12T01:28:57;9.63;;;7.22;;
17790;SDS011;9019;48.132;-1.210;2023-09-12T01:31:25;11.38;;;7.45;;
17790;SDS011;9019;48.132;-1.210;2023-09-12T01:33:54;11.48;;;8.00;;
17790;SDS011;9019;48.132;-1.210;2023-09-12T01:36:22;9.35;;;7.75;;
17790;SDS011;9019;48.132;-1.210;2023-09-12T01:38:49;9.10;;;7.35;;
17790;SDS011;9019;48.132;-1.210;2023-09-12T01:41:16;10.10;;;7.20;;
17790;SDS011;9019;48.132;-1.210;2023-09-12T01:43:44;9.38;;;7.63;;
17790;SDS011;9019;48.132;-1.210;2023-09-12T01:46:13;11.82;;;7.68;;
17790;SDS011;9019;48.132;-1.210;2023-09-12T01:48:42;9.50;;;7.82;;
17790;SDS011;9019;48.132;-1.210;2023-09-12T01:51:10;10.00;;;7.88;;
17790;SDS011;9019;48.132;-1.210;2023-09-12T01:53:38;10.38;;;6.95;;
17790;SDS011;9019;48.132;-1.210;2023-09-12T01:56:05;8.63;;;6.85;;
17790;SDS011;9019;48.132;-1.210;2023-09-12T01:58:33;10.30;;;6.78;;
17790;SDS011;9019;48.132;-1.210;2023-09-12T02:01:01;9.10;;;7.00;;
17790;SDS011;9019;48.132;-1.210;2023-09-12T02:03:29;9.60;;;6.70;;
17790;SDS011;9019;48.132;-1.210;2023-09-12T02:05:56;11.18;;;7.13;;
17790;SDS011;9019;48.132;-1.210;2023-09-12T02:08:24;11.27;;;7.40;;
17790;SDS011;9019;48.132;-1.210;2023-09-12T02:10:51;8.50;;;7.30;;
17790;SDS011;9019;48.132;-1.210;2023-09-12T02:13:18;10.00;;;7.53;;
17790;SDS011;9019;48.132;-1.210;2023-09-12T02:15:45;9.40;;;7.30;;
17790;SDS011;9019;48.132;-1.210;2023-09-12T02:18:12;10.73;;;7.20;;
17790;SDS011;9019;48.132;-1.210;2023-09-12T02:20:41;11.98;;;6.95;;
17790;SDS011;9019;48.132;-1.210;2023-09-12T02:23:11;11.63;;;8.30;;
17790;SDS011;9019;48.132;-1.210;2023-09-12T02:25:38;10.50;;;7.63;;
17790;SDS011;9019;48.132;-1.210;2023-09-12T02:28:05;10.73;;;7.63;;
17790;SDS011;9019;48.132;-1.210;2023-09-12T02:30:32;11.80;;;8.13;;
17790;SDS011;9019;48.132;-1.210;2023-09-12T02:32:59;12.23;;;8.15;;
17790;SDS011;9019;48.132;-1.210;2023-09-12T02:35:27;13.98;;;8.73;;
17790;SDS011;9019;48.132;-1.210;2023-09-12T02:37:56;15.68;;;8.48;;
17790;SDS011;9019;48.132;-1.210;2023-09-12T02:40:23;14.00;;;8.55;;
17790;SDS011;9019;48.132;-1.210;2023-09-12T02:42:50;12.88;;;8.80;;
17790;SDS011;9019;48.132;-1.210;2023-09-12T02:45:18;11.20;;;7.97;;
17790;SDS011;9019;48.132;-1.210;2023-09-12T02:47:45;9.60;;;7.78;;
17790;SDS011;9019;48.132;-1.210;2023-09-12T02:50:12;9.48;;;8.13;;
17790;SDS011;9019;48.132;-1.210;2023-09-12T02:52:39;13.52;;;8.48;;
17790;SDS011;9019;48.132;-1.210;2023-09-12T02:55:08;12.70;;;8.77;;
17790;SDS011;9019;48.132;-1.210;2023-09-12T02:57:36;13.15;;;8.85;;
17790;SDS011;9019;48.132;-1.210;2023-09-12T03:00:04;11.02;;;8.50;;
17790;SDS011;9019;48.132;-1.210;2023-09-12T03:02:34;16.20;;;9.48;;
17790;SDS011;9019;48.132;-1.210;2023-09-12T03:05:01;12.60;;;8.57;;
17790;SDS011;9019;48.132;-1.210;2023-09-12T03:07:29;12.10;;;8.63;;
17790;SDS011;9019;48.132;-1.210;2023-09-12T03:09:56;11.48;;;8.60;;
17790;SDS011;9019;48.132;-1.210;2023-09-12T03:12:24;11.82;;;8.60;;
17790;SDS011;9019;48.132;-1.210;2023-09-12T03:14:52;11.63;;;8.68;;
17790;SDS011;9019;48.132;-1.210;2023-09-12T03:17:19;11.85;;;8.77;;
17790;SDS011;9019;48.132;-1.210;2023-09-12T03:19:46;13.55;;;8.23;;
17790;SDS011;9019;48.132;-1.210;2023-09-12T03:22:14;12.60;;;8.35;;
17790;SDS011;9019;48.132;-1.210;2023-09-12T03:24:41;13.20;;;8.43;;
17790;SDS011;9019;48.132;-1.210;2023-09-12T03:27:10;14.63;;;8.32;;
17790;SDS011;9019;48.132;-1.210;2023-09-12T03:29:38;13.48;;;9.30;;
17790;SDS011;9019;48.132;-1.210;2023-09-12T03:32:06;14.35;;;9.35;;
17790;SDS011;9019;48.132;-1.210;2023-09-12T03:34:33;11.18;;;8.65;;
17790;SDS011;9019;48.132;-1.210;2023-09-12T03:37:00;12.55;;;8.75;;
17790;SDS011;9019;48.132;-1.210;2023-09-12T03:39:28;11.52;;;8.93;;
17790;SDS011;9019;48.132;-1.210;2023-09-12T03:41:55;12.60;;;7.72;;
17790;SDS011;9019;48.132;-1.210;2023-09-12T03:44:22;14.40;;;8.95;;
17790;SDS011;9019;48.132;-1.210;2023-09-12T03:46:51;11.45;;;8.88;;
17790;SDS011;9019;48.132;-1.210;2023-09-12T03:49:18;12.65;;;8.77;;
17790;SDS011;9019;48.132;-1.210;2023-09-12T03:51:45;11.07;;;8.75;;
17790;SDS011;9019;48.132;-1.210;2023-09-12T03:54:13;13.23;;;8.85;;
17790;SDS011;9019;48.132;-1.210;2023-09-12T03:56:40;11.48;;;8.48;;
17790;SDS011;9019;48.132;-1.210;2023-09-12T03:59:07;13.52;;;9.25;;
17790;SDS011;9019;48.132;-1.210;2023-09-12T04:01:34;14.55;;;9.57;;
17790;SDS011;9019;48.132;-1.210;2023-09-12T04:04:04;16.40;;;10.18;;
17790;SDS011;9019;48.132;-1.210;2023-09-12T04:06:31;16.23;;;10.15;;
17790;SDS011;9019;48.132;-1.210;2023-09-12T04:08:58;16.27;;;10.00;;
17790;SDS011;9019;48.132;-1.210;2023-09-12T04:11:26;15.10;;;9.30;;
17790;SDS011;9019;48.132;-1.210;2023-09-12T04:13:53;13.77;;;9.55;;
17790;SDS011;9019;48.132;-1.210;2023-09-12T04:16:20;15.00;;;9.93;;
17790;SDS011;9019;48.132;-1.210;2023-09-12T04:18:47;13.65;;;9.13;;
17790;SDS011;9019;48.132;-1.210;2023-09-12T04:21:16;14.63;;;9.63;;
17790;SDS011;9019;48.132;-1.210;2023-09-12T04:23:43;12.48;;;9.82;;
17790;SDS011;9019;48.132;-1.210;2023-09-12T04:26:10;12.43;;;8.60;;
17790;SDS011;9019;48.132;-1.210;2023-09-12T04:28:38;15.38;;;9.20;;
17790;SDS011;9019;48.132;-1.210;2023-09-12T04:31:05;13.77;;;9.77;;
17790;SDS011;9019;48.132;-1.210;2023-09-12T04:33:32;14.27;;;9.45;;
17790;SDS011;9019;48.132;-1.210;2023-09-12T04:36:00;12.43;;;9.65;;
17790;SDS011;9019;48.132;-1.210;2023-09-12T04:38:33;15.23;;;9.85;;
17790;SDS011;9019;48.132;-1.210;2023-09-12T04:41:02;16.77;;;9.73;;
17790;SDS011;9019;48.132;-1.210;2023-09-12T04:43:33;12.73;;;10.15;;
17790;SDS011;9019;48.132;-1.210;2023-09-12T04:46:03;15.00;;;9.93;;
17790;SDS011;9019;48.132;-1.210;2023-09-12T04:48:30;15.60;;;9.98;;
17790;SDS011;9019;48.132;-1.210;2023-09-12T04:50:57;14.55;;;9.55;;
17790;SDS011;9019;48.132;-1.210;2023-09-12T04:53:24;14.43;;;10.27;;
17790;SDS011;9019;48.132;-1.210;2023-09-12T04:55:53;14.23;;;9.90;;
17790;SDS011;9019;48.132;-1.210;2023-09-12T04:58:20;14.07;;;9.18;;
17790;SDS011;9019;48.132;-1.210;2023-09-12T05:00:48;12.52;;;9.27;;
17790;SDS011;9019;48.132;-1.210;2023-09-12T05:03:15;15.43;;;9.75;;
17790;SDS011;9019;48.132;-1.210;2023-09-12T05:05:44;14.10;;;9.80;;
17790;SDS011;9019;48.132;-1.210;2023-09-12T05:08:12;14.32;;;9.65;;
17790;SDS011;9019;48.132;-1.210;2023-09-12T05:10:40;14.35;;;10.23;;
17790;SDS011;9019;48.132;-1.210;2023-09-12T05:13:08;13.25;;;9.35;;
17790;SDS011;9019;48.132;-1.210;2023-09-12T05:15:36;14.02;;;9.85;;
17790;SDS011;9019;48.132;-1.210;2023-09-12T05:18:04;14.73;;;9.40;;
17790;SDS011;9019;48.132;-1.210;2023-09-12T05:20:31;15.13;;;10.00;;
17790;SDS011;9019;48.132;-1.210;2023-09-12T05:22:59;15.30;;;9.95;;
17790;SDS011;9019;48.132;-1.210;2023-09-12T05:25:26;13.73;;;9.88;;
17790;SDS011;9019;48.132;-1.210;2023-09-12T05:27:54;13.27;;;9.30;;
17790;SDS011;9019;48.132;-1.210;2023-09-12T05:30:22;16.02;;;9.30;;
17790;SDS011;9019;48.132;-1.210;2023-09-12T05:32:49;15.38;;;9.52;;
17790;SDS011;9019;48.132;-1.210;2023-09-12T05:35:17;16.00;;;9.80;;
17790;SDS011;9019;48.132;-1.210;2023-09-12T05:37:44;15.02;;;9.15;;
17790;SDS011;9019;48.132;-1.210;2023-09-12T05:40:11;13.82;;;9.75;;
17790;SDS011;9019;48.132;-1.210;2023-09-12T05:42:39;15.65;;;9.73;;
17790;SDS011;9019;48.132;-1.210;2023-09-12T05:45:06;14.68;;;10.02;;
17790;SDS011;9019;48.132;-1.210;2023-09-12T05:47:35;14.05;;;9.48;;
17790;SDS011;9019;48.132;-1.210;2023-09-12T05:50:02;15.93;;;9.75;;
17790;SDS011;9019;48.132;-1.210;2023-09-12T05:52:31;12.40;;;9.57;;
17790;SDS011;9019;48.132;-1.210;2023-09-12T05:54:59;12.70;;;9.43;;
17790;SDS011;9019;48.132;-1.210;2023-09-12T05:57:26;14.57;;;9.82;;
17790;SDS011;9019;48.132;-1.210;2023-09-12T05:59:53;15.32;;;9.50;;
17790;SDS011;9019;48.132;-1.210;2023-09-12T06:02:20;14.18;;;9.82;;
17790;SDS011;9019;48.132;-1.210;2023-09-12T06:04:49;14.13;;;9.70;;
17790;SDS011;9019;48.132;-1.210;2023-09-12T06:07:16;13.23;;;9.65;;
17790;SDS011;9019;48.132;-1.210;2023-09-12T06:09:44;15.60;;;9.60;;
17790;SDS011;9019;48.132;-1.210;2023-09-12T06:12:12;14.88;;;10.30;;
17790;SDS011;9019;48.132;-1.210;2023-09-12T06:14:39;15.90;;;10.20;;
17790;SDS011;9019;48.132;-1.210;2023-09-12T06:17:06;16.05;;;9.88;;
17790;SDS011;9019;48.132;-1.210;2023-09-12T06:19:33;12.43;;;9.48;;
17790;SDS011;9019;48.132;-1.210;2023-09-12T06:22:02;14.07;;;10.05;;
17790;SDS011;9019;48.132;-1.210;2023-09-12T06:24:30;13.43;;;9.52;;
17790;SDS011;9019;48.132;-1.210;2023-09-12T06:26:57;14.30;;;10.25;;
17790;SDS011;9019;48.132;-1.210;2023-09-12T06:29:24;13.98;;;9.68;;
17790;SDS011;9019;48.132;-1.210;2023-09-12T06:31:51;14.18;;;9.68;;
17790;SDS011;9019;48.132;-1.210;2023-09-12T06:34:19;15.80;;;9.60;;
17790;SDS011;9019;48.132;-1.210;2023-09-12T06:36:47;13.70;;;10.35;;
17790;SDS011;9019;48.132;-1.210;2023-09-12T06:39:15;15.75;;;10.20;;
17790;SDS011;9019;48.132;-1.210;2023-09-12T06:41:43;16.25;;;10.38;;
17790;SDS011;9019;48.132;-1.210;2023-09-12T06:44:10;15.80;;;10.05;;
17790;SDS011;9019;48.132;-1.210;2023-09-12T06:46:38;15.20;;;10.50;;
17790;SDS011;9019;48.132;-1.210;2023-09-12T06:49:05;14.95;;;10.25;;
17790;SDS011;9019;48.132;-1.210;2023-09-12T06:51:32;15.93;;;10.00;;
17790;SDS011;9019;48.132;-1.210;2023-09-12T06:53:59;15.10;;;10.32;;
17790;SDS011;9019;48.132;-1.210;2023-09-12T06:56:28;14.85;;;10.40;;
17790;SDS011;9019;48.132;-1.210;2023-09-12T06:58:55;15.68;;;9.85;;
17790;SDS011;9019;48.132;-1.210;2023-09-12T07:01:24;16.77;;;10.60;;
17790;SDS011;9019;48.132;-1.210;2023-09-12T07:03:51;16.45;;;10.48;;
17790;SDS011;9019;48.132;-1.210;2023-09-12T07:06:20;17.00;;;10.25;;
17790;SDS011;9019;48.132;-1.210;2023-09-12T07:08:47;15.40;;;10.65;;
17790;SDS011;9019;48.132;-1.210;2023-09-12T07:11:15;15.38;;;10.18;;
17790;SDS011;9019;48.132;-1.210;2023-09-12T07:13:43;12.55;;;10.40;;
17790;SDS011;9019;48.132;-1.210;2023-09-12T07:16:11;14.98;;;10.98;;
17790;SDS011;9019;48.132;-1.210;2023-09-12T07:18:38;14.02;;;10.32;;
17790;SDS011;9019;48.132;-1.210;2023-09-12T07:21:05;12.75;;;10.18;;
17790;SDS011;9019;48.132;-1.210;2023-09-12T07:23:33;16.33;;;10.30;;
17790;SDS011;9019;48.132;-1.210;2023-09-12T07:26:00;12.70;;;9.98;;
17790;SDS011;9019;48.132;-1.210;2023-09-12T07:28:28;16.40;;;10.40;;
17790;SDS011;9019;48.132;-1.210;2023-09-12T07:30:56;13.85;;;10.45;;
17790;SDS011;9019;48.132;-1.210;2023-09-12T07:33:23;13.85;;;10.43;;
17790;SDS011;9019;48.132;-1.210;2023-09-12T07:35:51;13.68;;;10.25;;
17790;SDS011;9019;48.132;-1.210;2023-09-12T07:38:19;14.82;;;10.38;;
17790;SDS011;9019;48.132;-1.210;2023-09-12T07:40:47;14.25;;;10.40;;
17790;SDS011;9019;48.132;-1.210;2023-09-12T07:43:14;15.88;;;10.63;;
17790;SDS011;9019;48.132;-1.210;2023-09-12T07:45:41;10.90;;;9.75;;
17790;SDS011;9019;48.132;-1.210;2023-09-12T07:48:10;12.93;;;10.05;;
17790;SDS011;9019;48.132;-1.210;2023-09-12T07:50:37;12.85;;;10.02;;
17790;SDS011;9019;48.132;-1.210;2023-09-12T07:53:05;11.57;;;9.73;;
17790;SDS011;9019;48.132;-1.210;2023-09-12T07:55:35;15.05;;;10.13;;
17790;SDS011;9019;48.132;-1.210;2023-09-12T07:58:10;14.15;;;9.10;;
17790;SDS011;9019;48.132;-1.210;2023-09-12T08:00:37;13.98;;;9.95;;
17790;SDS011;9019;48.132;-1.210;2023-09-12T08:03:04;11.40;;;9.70;;
17790;SDS011;9019;48.132;-1.210;2023-09-12T08:05:33;10.40;;;9.13;;
17790;SDS011;9019;48.132;-1.210;2023-09-12T08:08:00;14.13;;;9.45;;
17790;SDS011;9019;48.132;-1.210;2023-09-12T08:10:27;12.23;;;9.82;;
17790;SDS011;9019;48.132;-1.210;2023-09-12T08:12:54;9.95;;;8.88;;
17790;SDS011;9019;48.132;-1.210;2023-09-12T08:15:22;12.45;;;9.25;;
17790;SDS011;9019;48.132;-1.210;2023-09-12T08:17:49;13.27;;;9.32;;
17790;SDS011;9019;48.132;-1.210;2023-09-12T08:20:18;12.63;;;10.05;;
17790;SDS011;9019;48.132;-1.210;2023-09-12T08:22:47;31.33;;;11.80;;
17790;SDS011;9019;48.132;-1.210;2023-09-12T08:25:14;17.13;;;10.57;;
17790;SDS011;9019;48.132;-1.210;2023-09-12T08:27:42;12.57;;;9.68;;
17790;SDS011;9019;48.132;-1.210;2023-09-12T08:30:09;10.85;;;9.75;;
17790;SDS011;9019;48.132;-1.210;2023-09-12T08:32:37;13.55;;;10.15;;
17790;SDS011;9019;48.132;-1.210;2023-09-12T08:35:08;12.85;;;10.60;;
17790;SDS011;9019;48.132;-1.210;2023-09-12T08:37:37;11.93;;;9.70;;
17790;SDS011;9019;48.132;-1.210;2023-09-12T08:40:06;14.30;;;12.10;;
17790;SDS011;9019;48.132;-1.210;2023-09-12T08:42:37;18.38;;;12.88;;
17790;SDS011;9019;48.132;-1.210;2023-09-12T08:45:07;12.20;;;10.05;;
17790;SDS011;9019;48.132;-1.210;2023-09-12T08:47:35;11.65;;;9.05;;
17790;SDS011;9019;48.132;-1.210;2023-09-12T08:50:03;11.65;;;9.85;;
17790;SDS011;9019;48.132;-1.210;2023-09-12T08:52:31;15.50;;;8.40;;
17790;SDS011;9019;48.132;-1.210;2023-09-12T08:54:58;9.85;;;8.18;;
17790;SDS011;9019;48.132;-1.210;2023-09-12T08:57:27;9.80;;;7.53;;
17790;SDS011;9019;48.132;-1.210;2023-09-12T08:59:54;15.20;;;7.82;;
17790;SDS011;9019;48.132;-1.210;2023-09-12T09:02:22;8.82;;;7.40;;
17790;SDS011;9019;48.132;-1.210;2023-09-12T09:04:49;8.90;;;7.45;;
17790;SDS011;9019;48.132;-1.210;2023-09-12T09:07:17;11.75;;;8.80;;
17790;SDS011;9019;48.132;-1.210;2023-09-12T09:09:45;12.52;;;7.95;;
17790;SDS011;9019;48.132;-1.210;2023-09-12T09:12:12;9.27;;;7.30;;
17790;SDS011;9019;48.132;-1.210;2023-09-12T09:14:41;7.65;;;6.88;;
17790;SDS011;9019;48.132;-1.210;2023-09-12T09:17:08;7.93;;;7.10;;
17790;SDS011;9019;48.132;-1.210;2023-09-12T09:19:41;9.65;;;7.18;;
17790;SDS011;9019;48.132;-1.210;2023-09-12T09:22:08;10.35;;;7.60;;
17790;SDS011;9019;48.132;-1.210;2023-09-12T09:24:36;7.88;;;7.07;;
17790;SDS011;9019;48.132;-1.210;2023-09-12T09:27:03;8.95;;;7.40;;
17790;SDS011;9019;48.132;-1.210;2023-09-12T09:29:30;8.85;;;6.95;;
17790;SDS011;9019;48.132;-1.210;2023-09-12T09:32:00;7.82;;;6.57;;
17790;SDS011;9019;48.132;-1.210;2023-09-12T09:34:27;8.07;;;6.82;;
17790;SDS011;9019;48.132;-1.210;2023-09-12T09:36:56;7.63;;;6.47;;
17790;SDS011;9019;48.132;-1.210;2023-09-12T09:39:24;8.38;;;7.07;;
17790;SDS011;9019;48.132;-1.210;2023-09-12T09:41:52;7.97;;;6.10;;
17790;SDS011;9019;48.132;-1.210;2023-09-12T09:44:20;7.15;;;6.45;;
17790;SDS011;9019;48.132;-1.210;2023-09-12T09:46:50;7.30;;;5.65;;
17790;SDS011;9019;48.132;-1.210;2023-09-12T09:49:20;6.32;;;5.72;;
17790;SDS011;9019;48.132;-1.210;2023-09-12T09:51:47;7.60;;;6.18;;
17790;SDS011;9019;48.132;-1.210;2023-09-12T09:54:14;6.97;;;5.70;;
17790;SDS011;9019;48.132;-1.210;2023-09-12T09:56:45;7.85;;;6.00;;
17790;SDS011;9019;48.132;-1.210;2023-09-12T09:59:14;5.88;;;4.97;;
17790;SDS011;9019;48.132;-1.210;2023-09-12T10:01:41;5.93;;;4.57;;
17790;SDS011;9019;48.132;-1.210;2023-09-12T10:04:10;5.65;;;4.30;;
17790;SDS011;9019;48.132;-1.210;2023-09-12T10:06:38;5.35;;;3.55;;
17790;SDS011;9019;48.132;-1.210;2023-09-12T10:09:06;6.82;;;4.20;;
17790;SDS011;9019;48.132;-1.210;2023-09-12T10:11:35;4.35;;;3.78;;
17790;SDS011;9019;48.132;-1.210;2023-09-12T10:14:04;5.18;;;3.92;;
17790;SDS011;9019;48.132;-1.210;2023-09-12T10:16:31;6.00;;;3.30;;
17790;SDS011;9019;48.132;-1.210;2023-09-12T10:19:02;3.47;;;2.63;;
17790;SDS011;9019;48.132;-1.210;2023-09-12T10:21:31;4.20;;;3.08;;
17790;SDS011;9019;48.132;-1.210;2023-09-12T10:24:02;5.97;;;3.60;;
17790;SDS011;9019;48.132;-1.210;2023-09-12T10:26:31;2.15;;;1.70;;
17790;SDS011;9019;48.132;-1.210;2023-09-12T10:28:58;2.75;;;2.15;;
17790;SDS011;9019;48.132;-1.210;2023-09-12T10:31:26;4.35;;;2.53;;
17790;SDS011;9019;48.132;-1.210;2023-09-12T10:33:53;3.33;;;2.53;;
17790;SDS011;9019;48.132;-1.210;2023-09-12T10:36:20;3.70;;;3.03;;
17790;SDS011;9019;48.132;-1.210;2023-09-12T10:38:48;4.65;;;2.72;;
17790;SDS011;9019;48.132;-1.210;2023-09-12T10:41:17;2.97;;;2.00;;
17790;SDS011;9019;48.132;-1.210;2023-09-12T10:43:46;2.63;;;2.20;;
17790;SDS011;9019;48.132;-1.210;2023-09-12T10:46:17;4.65;;;2.63;;
17790;SDS011;9019;48.132;-1.210;2023-09-12T10:48:46;3.72;;;2.15;;
17790;SDS011;9019;48.132;-1.210;2023-09-12T10:51:14;2.55;;;2.35;;
17790;SDS011;9019;48.132;-1.210;2023-09-12T10:53:46;3.55;;;3.00;;
17790;SDS011;9019;48.132;-1.210;2023-09-12T10:56:15;3.38;;;3.08;;
17790;SDS011;9019;48.132;-1.210;2023-09-12T11:01:31;4.50;;;3.20;;
17790;SDS011;9019;48.132;-1.210;2023-09-12T11:03:58;4.45;;;3.00;;
17790;SDS011;9019;48.132;-1.210;2023-09-12T11:06:28;6.60;;;2.75;;
17790;SDS011;9019;48.132;-1.210;2023-09-12T11:11:42;7.22;;;2.53;;
17790;SDS011;9019;48.132;-1.210;2023-09-12T11:14:10;4.47;;;2.25;;
17790;SDS011;9019;48.132;-1.210;2023-09-12T11:16:39;2.00;;;1.80;;
17790;SDS011;9019;48.132;-1.210;2023-09-12T11:19:13;3.95;;;2.17;;
17790;SDS011;9019;48.132;-1.210;2023-09-12T11:21:41;2.50;;;2.10;;
17790;SDS011;9019;48.132;-1.210;2023-09-12T11:24:08;3.60;;;2.10;;
17790;SDS011;9019;48.132;-1.210;2023-09-12T11:26:36;2.42;;;1.80;;
17790;SDS011;9019;48.132;-1.210;2023-09-12T11:29:19;4.38;;;1.75;;
17790;SDS011;9019;48.132;-1.210;2023-09-12T11:31:52;4.15;;;2.00;;
17790;SDS011;9019;48.132;-1.210;2023-09-12T11:34:23;3.05;;;1.77;;
17790;SDS011;9019;48.132;-1.210;2023-09-12T11:36:54;2.33;;;1.80;;
17790;SDS011;9019;48.132;-1.210;2023-09-12T11:39:25;3.72;;;1.70;;
17790;SDS011;9019;48.132;-1.210;2023-09-12T11:41:52;3.33;;;1.65;;
17790;SDS011;9019;48.132;-1.210;2023-09-12T11:44:20;1.98;;;1.05;;
17790;SDS011;9019;48.132;-1.210;2023-09-12T11:46:48;2.60;;;1.35;;
17790;SDS011;9019;48.132;-1.210;2023-09-12T11:49:18;1.98;;;1.27;;
17790;SDS011;9019;48.132;-1.210;2023-09-12T11:51:49;1.83;;;1.10;;
17790;SDS011;9019;48.132;-1.210;2023-09-12T11:54:17;2.35;;;1.27;;
17790;SDS011;9019;48.132;-1.210;2023-09-12T11:56:46;1.55;;;1.42;;
17790;SDS011;9019;48.132;-1.210;2023-09-12T11:59:14;2.38;;;1.30;;
17790;SDS011;9019;48.132;-1.210;2023-09-12T12:01:44;2.20;;;1.30;;
17790;SDS011;9019;48.132;-1.210;2023-09-12T12:04:11;2.95;;;1.60;;
17790;SDS011;9019;48.132;-1.210;2023-09-12T12:06:40;1.92;;;1.05;;
17790;SDS011;9019;48.132;-1.210;2023-09-12T12:09:09;1.77;;;1.10;;
17790;SDS011;9019;48.132;-1.210;2023-09-12T12:11:36;1.52;;;1.05;;
17790;SDS011;9019;48.132;-1.210;2023-09-12T12:14:11;2.38;;;1.05;;
17790;SDS011;9019;48.132;-1.210;2023-09-12T12:16:39;2.15;;;1.20;;
17790;SDS011;9019;48.132;-1.210;2023-09-12T12:19:06;1.60;;;1.17;;
17790;SDS011;9019;48.132;-1.210;2023-09-12T12:21:33;1.60;;;1.00;;
17790;SDS011;9019;48.132;-1.210;2023-09-12T12:24:02;2.20;;;0.95;;
17790;SDS011;9019;48.132;-1.210;2023-09-12T12:26:30;5.78;;;1.13;;
17790;SDS011;9019;48.132;-1.210;2023-09-12T12:28:58;1.45;;;1.00;;
17790;SDS011;9019;48.132;-1.210;2023-09-12T12:31:25;1.83;;;1.00;;
17790;SDS011;9019;48.132;-1.210;2023-09-12T12:33:53;1.40;;;1.10;;
17790;SDS011;9019;48.132;-1.210;2023-09-12T12:36:20;3.53;;;1.30;;
17790;SDS011;9019;48.132;-1.210;2023-09-12T12:38:48;2.30;;;1.10;;
17790;SDS011;9019;48.132;-1.210;2023-09-12T12:41:17;2.42;;;1.45;;
17790;SDS011;9019;48.132;-1.210;2023-09-12T12:43:49;3.30;;;1.10;;
17790;SDS011;9019;48.132;-1.210;2023-09-12T12:46:16;2.08;;;1.30;;
17790;SDS011;9019;48.132;-1.210;2023-09-12T12:48:44;1.52;;;0.90;;
17790;SDS011;9019;48.132;-1.210;2023-09-12T12:51:12;1.73;;;1.00;;
17790;SDS011;9019;48.132;-1.210;2023-09-12T12:53:42;1.48;;;1.00;;
17790;SDS011;9019;48.132;-1.210;2023-09-12T12:56:11;2.45;;;1.10;;
17790;SDS011;9019;48.132;-1.210;2023-09-12T12:58:40;2.42;;;1.20;;
17790;SDS011;9019;48.132;-1.210;2023-09-12T13:01:11;2.30;;;1.00;;
17790;SDS011;9019;48.132;-1.210;2023-09-12T13:03:39;1.65;;;1.20;;
17790;SDS011;9019;48.132;-1.210;2023-09-12T13:06:07;5.25;;;1.45;;
17790;SDS011;9019;48.132;-1.210;2023-09-12T13:08:38;2.63;;;1.10;;
17790;SDS011;9019;48.132;-1.210;2023-09-12T13:11:06;5.03;;;1.52;;
17790;SDS011;9019;48.132;-1.210;2023-09-12T13:13:33;2.30;;;1.35;;
17790;SDS011;9019;48.132;-1.210;2023-09-12T13:16:02;1.77;;;1.40;;
17790;SDS011;9019;48.132;-1.210;2023-09-12T13:18:31;3.22;;;1.40;;
17790;SDS011;9019;48.132;-1.210;2023-09-12T13:20:58;4.78;;;1.40;;
17790;SDS011;9019;48.132;-1.210;2023-09-12T13:23:25;2.88;;;1.10;;
17790;SDS011;9019;48.132;-1.210;2023-09-12T13:25:52;2.03;;;1.20;;
17790;SDS011;9019;48.132;-1.210;2023-09-12T13:28:19;2.38;;;1.05;;
17790;SDS011;9019;48.132;-1.210;2023-09-12T13:30:48;2.58;;;1.20;;
17790;SDS011;9019;48.132;-1.210;2023-09-12T13:33:17;1.98;;;1.15;;
17790;SDS011;9019;48.132;-1.210;2023-09-12T13:35:44;2.40;;;1.33;;
17790;SDS011;9019;48.132;-1.210;2023-09-12T13:38:11;2.20;;;1.40;;
17790;SDS011;9019;48.132;-1.210;2023-09-12T13:40:39;2.47;;;1.27;;
17790;SDS011;9019;48.132;-1.210;2023-09-12T13:43:07;2.85;;;1.40;;
17790;SDS011;9019;48.132;-1.210;2023-09-12T13:45:34;2.63;;;1.52;;
17790;SDS011;9019;48.132;-1.210;2023-09-12T13:48:02;2.85;;;1.50;;
17790;SDS011;9019;48.132;-1.210;2023-09-12T13:50:31;2.38;;;1.30;;
17790;SDS011;9019;48.132;-1.210;2023-09-12T13:52:59;2.83;;;1.40;;
17790;SDS011;9019;48.132;-1.210;2023-09-12T13:55:28;2.03;;;1.65;;
17790;SDS011;9019;48.132;-1.210;2023-09-12T13:57:56;2.08;;;1.52;;
17790;SDS011;9019;48.132;-1.210;2023-09-12T14:00:24;3.40;;;1.50;;
17790;SDS011;9019;48.132;-1.210;2023-09-12T14:02:51;1.98;;;1.30;;
17790;SDS011;9019;48.132;-1.210;2023-09-12T14:05:18;3.60;;;1.48;;
17790;SDS011;9019;48.132;-1.210;2023-09-12T14:07:47;2.65;;;1.38;;
17790;SDS011;9019;48.132;-1.210;2023-09-12T14:10:14;1.35;;;1.25;;
17790;SDS011;9019;48.132;-1.210;2023-09-12T14:12:42;1.77;;;1.30;;
17790;SDS011;9019;48.132;-1.210;2023-09-12T14:15:10;2.17;;;1.48;;
17790;SDS011;9019;48.132;-1.210;2023-09-12T14:17:37;2.50;;;1.45;;
17790;SDS011;9019;48.132;-1.210;2023-09-12T14:20:04;1.63;;;1.48;;
17790;SDS011;9019;48.132;-1.210;2023-09-12T14:22:33;2.17;;;1.70;;
17790;SDS011;9019;48.132;-1.210;2023-09-12T14:25:02;2.70;;;1.67;;
17790;SDS011;9019;48.132;-1.210;2023-09-12T14:27:30;3.00;;;1.27;;
17790;SDS011;9019;48.132;-1.210;2023-09-12T14:29:57;1.75;;;1.48;;
17790;SDS011;9019;48.132;-1.210;2023-09-12T14:32:24;4.63;;;1.63;;
17790;SDS011;9019;48.132;-1.210;2023-09-12T14:34:52;3.00;;;1.40;;
17790;SDS011;9019;48.132;-1.210;2023-09-12T14:37:19;2.90;;;1.40;;
17790;SDS011;9019;48.132;-1.210;2023-09-12T14:39:47;5.22;;;1.60;;
17790;SDS011;9019;48.132;-1.210;2023-09-12T14:42:16;3.35;;;2.10;;
17790;SDS011;9019;48.132;-1.210;2023-09-12T14:44:43;2.03;;;1.65;;
17790;SDS011;9019;48.132;-1.210;2023-09-12T14:47:11;4.70;;;1.80;;
17790;SDS011;9019;48.132;-1.210;2023-09-12T14:49:38;3.72;;;1.70;;